METAR Data
IDs: Format: Raw Decoded Include TAF

Data at: 0708 UTC 18 Sep 2021

KITH 180656Z AUTO 15004KT 10SM -RA BKN041 OVC070 19/18 A3013 RMK AO2 RAB53 SLP195 P0000 T01940183
KITH 180556Z AUTO 13006KT 10SM FEW049 SCT100 19/18 A3012 RMK AO2 SLP194 T01890183 10206 20189 58007
KITH 180456Z AUTO 15006KT 10SM CLR 19/18 A3013 RMK AO2 SLP198 T01890183

KITH 180651Z 1807/1906 16003KT P6SM FEW050
  TEMPO 1807/1808 4SM -SHRA OVC040
  FM180800 19003KT 5SM BR BKN040
  FM181200 VRB03KT P6SM SCT050
  FM181500 31008G13KT P6SM BKN035
  FM182000 33011G17KT P6SM BKN045
  FM182300 34005KT P6SM FEW070


KBGM 180701Z AUTO 21004KT 7SM SCT003 BKN011 BKN050 17/17 A3013 RMK AO2 T01720172
KBGM 180653Z AUTO 20003KT 7SM BKN003 BKN013 OVC050 17/17 A3013 RMK AO2 SLP196 T01720172
KBGM 180621Z AUTO 19004KT 8SM SCT003 OVC011 18/17 A3014 RMK AO2 T01780172
KBGM 180553Z AUTO 18004KT 8SM OVC003 18/17 A3015 RMK AO2 SLP201 T01780172 10194 20172 58004
KBGM 180524Z AUTO 21005KT 7SM OVC003 17/17 A3015 RMK AO2 T01720172
KBGM 180504Z AUTO 17003KT 7SM BKN005 17/17 A3015 RMK AO2 CIG 003V008 T01720172
KBGM 180453Z AUTO 17003KT 8SM SCT007 17/17 A3015 RMK AO2 SLP204 T01720172 402280167
KBGM 180451Z AUTO 17003KT 8SM SCT007 17/17 A3015 RMK AO2

KBGM 180652Z 1807/1906 23004KT 6SM BR BKN002
  TEMPO 1807/1809 3SM -SHRA SCT002 OVC050
  FM181200 27004KT 3SM BR BKN007
  FM181300 29004KT P6SM BKN020
  FM181500 32007G14KT P6SM SCT050
  FM190000 34006KT P6SM SCT070


KELM 180653Z AUTO 11005KT 9SM FEW002 OVC015 18/18 A3012 RMK AO2 RAB12E39 SLP193 P0000 T01830178
KELM 180638Z AUTO 00000KT 3SM -RA BR FEW001 BKN017 OVC100 18/17 A3012 RMK AO2 RAB12 P0000 T01830172
KELM 180619Z AUTO 00000KT 1 3/4SM R24/4000VP6000FT -RA BR SCT004 BKN044 OVC100 18/17 A3011 RMK AO2 RAB12 P0000 T01780172
KELM 180612Z AUTO 00000KT 1SM R24/P6000FT -RA BR BKN002 OVC100 18/17 A3011 RMK AO2 RAB12 P0000 T01780172
KELM 180606Z AUTO 00000KT 1/4SM R24/P6000FT FG VV002 18/17 A3011 RMK AO2 T01780167
KELM 180553Z AUTO 00000KT 1/4SM R24/P6000FT FG VV001 17/17 A3011 RMK AO2 SLP191 T01720167 10217 20167 58008
KELM 180509Z AUTO 00000KT 1/4SM R24/P6000FT FG VV001 17/17 A3012 RMK AO2 T01720167
KELM 180504Z AUTO 00000KT 3/4SM R24/P6000FT BR VV002 17/17 A3012 RMK AO2 T01720167
KELM 180459Z AUTO 00000KT 1SM R24/P6000FT BR VV001 17/17 A3012 RMK AO2 T01720167
KELM 180453Z AUTO 00000KT 1/2SM R24/3000VP6000FT FG VV002 17/17 A3012 RMK AO2 SLP195 T01720167 402670156
KELM 180451Z AUTO 00000KT 1/4SM R24/3000VP6000FT FG VV002 18/17 A3012 RMK AO2
KELM 180440Z AUTO 00000KT 1/4SM R24/5000VP6000FT FG VV001 17/17 A3013 RMK AO2 T01720167
KELM 180433Z AUTO 00000KT 1 3/4SM BR OVC001 17/16 A3013 RMK AO2 T01720161

KELM 180537Z 1806/1906 23003KT 1/4SM FG VV001
  TEMPO 1806/1808 2SM BR FEW001 BKN060
  FM181030 27003KT 3/4SM BR BKN003
  FM181230 29003KT 2SM BR BKN005
  FM181330 31005KT P6SM BKN020
  FM181600 32007G14KT P6SM BKN035
  FM190000 35005KT P6SM FEW070


KAVP 180654Z AUTO 24003KT 10SM OVC010 20/18 A3014 RMK AO2 SLP197 T02000183
KAVP 180554Z AUTO 00000KT 10SM OVC011 19/18 A3014 RMK AO2 SLP200 T01890178 10222 20183 57004
KAVP 180524Z 00000KT 10SM BKN012 18/17 A3014 RMK AO2 T01830172
KAVP 180454Z 00000KT 10SM CLR 19/18 A3015 RMK AO2 SLP202 T01890178 402720189

KAVP 180537Z 1806/1906 VRB03KT P6SM BKN012
  TEMPO 1808/1812 BKN008
  FM181400 32003KT P6SM BKN020
  FM181700 32007G13KT P6SM SCT050
  FM190200 35004KT P6SM FEW070